sensor_id;sensor_type;location;lat;lon;timestamp;pressure;altitude;pressure_sealevel;temperature;humidity
52441;BME280;39611;46.062;8.950;2022-10-26T00:00:51;97068.31;;;14.20;100.00
52441;BME280;39611;46.062;8.950;2022-10-26T00:03:18;97067.81;;;14.18;100.00
52441;BME280;39611;46.062;8.950;2022-10-26T00:05:44;97071.59;;;14.12;100.00
52441;BME280;39611;46.062;8.950;2022-10-26T00:08:11;97079.81;;;14.16;100.00
52441;BME280;39611;46.062;8.950;2022-10-26T00:10:38;97072.75;;;14.06;100.00
52441;BME280;39611;46.062;8.950;2022-10-26T00:13:07;97071.03;;;14.15;100.00
52441;BME280;39611;46.062;8.950;2022-10-26T00:15:34;97076.25;;;14.26;100.00
52441;BME280;39611;46.062;8.950;2022-10-26T00:18:00;97078.13;;;14.25;100.00
52441;BME280;39611;46.062;8.950;2022-10-26T00:20:27;97068.78;;;14.28;100.00
52441;BME280;39611;46.062;8.950;2022-10-26T00:22:53;97075.47;;;14.25;100.00
52441;BME280;39611;46.062;8.950;2022-10-26T00:25:19;97063.47;;;14.28;100.00
52441;BME280;39611;46.062;8.950;2022-10-26T00:27:46;97076.25;;;14.26;100.00
52441;BME280;39611;46.062;8.950;2022-10-26T00:30:13;97069.38;;;14.25;100.00
52441;BME280;39611;46.062;8.950;2022-10-26T00:32:39;97070.38;;;14.29;100.00
52441;BME280;39611;46.062;8.950;2022-10-26T00:35:10;97069.38;;;14.25;100.00
52441;BME280;39611;46.062;8.950;2022-10-26T00:37:53;97074.03;;;14.09;100.00
52441;BME280;39611;46.062;8.950;2022-10-26T00:40:19;97075.84;;;14.13;100.00
52441;BME280;39611;46.062;8.950;2022-10-26T00:42:46;97059.22;;;14.27;100.00
52441;BME280;39611;46.062;8.950;2022-10-26T00:45:23;97039.47;;;14.33;100.00
52441;BME280;39611;46.062;8.950;2022-10-26T00:47:54;97032.59;;;14.27;100.00
52441;BME280;39611;46.062;8.950;2022-10-26T00:52:57;97057.63;;;14.26;100.00
52441;BME280;39611;46.062;8.950;2022-10-26T00:55:28;97065.97;;;14.19;100.00
52441;BME280;39611;46.062;8.950;2022-10-26T00:57:57;97060.28;;;14.26;100.00
52441;BME280;39611;46.062;8.950;2022-10-26T01:00:25;97059.59;;;14.15;100.00
52441;BME280;39611;46.062;8.950;2022-10-26T01:02:53;97056.34;;;13.94;100.00
52441;BME280;39611;46.062;8.950;2022-10-26T01:05:20;97057.09;;;13.99;100.00
52441;BME280;39611;46.062;8.950;2022-10-26T01:07:47;97041.81;;;14.10;100.00
52441;BME280;39611;46.062;8.950;2022-10-26T01:10:15;97031.47;;;14.09;100.00
52441;BME280;39611;46.062;8.950;2022-10-26T01:12:42;97026.66;;;14.11;100.00
52441;BME280;39611;46.062;8.950;2022-10-26T01:15:09;97041.81;;;14.10;100.00
52441;BME280;39611;46.062;8.950;2022-10-26T01:17:53;97044.31;;;14.02;100.00
52441;BME280;39611;46.062;8.950;2022-10-26T01:28:50;97037.78;;;13.89;100.00
52441;BME280;39611;46.062;8.950;2022-10-26T01:31:21;97032.94;;;13.96;100.00
52441;BME280;39611;46.062;8.950;2022-10-26T01:34:02;97023.31;;;14.00;100.00
52441;BME280;39611;46.062;8.950;2022-10-26T01:36:33;97021.78;;;13.94;100.00
52441;BME280;39611;46.062;8.950;2022-10-26T01:39:21;97015.25;;;13.81;100.00
52441;BME280;39611;46.062;8.950;2022-10-26T01:41:54;97024.38;;;13.99;100.00
52441;BME280;39611;46.062;8.950;2022-10-26T01:44:39;97026.06;;;13.90;100.00
52441;BME280;39611;46.062;8.950;2022-10-26T01:47:10;97021.09;;;13.83;100.00
52441;BME280;39611;46.062;8.950;2022-10-26T01:49:41;97026.63;;;13.87;100.00
52441;BME280;39611;46.062;8.950;2022-10-26T01:52:09;97045.50;;;13.85;100.00
52441;BME280;39611;46.062;8.950;2022-10-26T01:54:36;97053.03;;;13.78;100.00
52441;BME280;39611;46.062;8.950;2022-10-26T01:57:09;97045.50;;;13.85;100.00
52441;BME280;39611;46.062;8.950;2022-10-26T02:07:50;97024.19;;;13.90;100.00
52441;BME280;39611;46.062;8.950;2022-10-26T02:10:32;97043.63;;;13.91;100.00
52441;BME280;39611;46.062;8.950;2022-10-26T02:15:53;97046.94;;;13.77;100.00
52441;BME280;39611;46.062;8.950;2022-10-26T02:18:34;97054.88;;;13.83;100.00
52441;BME280;39611;46.062;8.950;2022-10-26T02:21:06;97048.41;;;13.89;100.00
52441;BME280;39611;46.062;8.950;2022-10-26T02:23:37;97048.25;;;13.80;100.00
52441;BME280;39611;46.062;8.950;2022-10-26T02:26:06;97028.31;;;13.77;100.00
52441;BME280;39611;46.062;8.950;2022-10-26T02:28:36;97015.50;;;13.80;100.00
52441;BME280;39611;46.062;8.950;2022-10-26T02:31:05;97012.81;;;13.85;100.00
52441;BME280;39611;46.062;8.950;2022-10-26T02:33:36;97005.91;;;13.84;100.00
52441;BME280;39611;46.062;8.950;2022-10-26T02:36:08;97010.19;;;13.80;100.00
52441;BME280;39611;46.062;8.950;2022-10-26T02:38:37;96996.38;;;13.83;100.00
52441;BME280;39611;46.062;8.950;2022-10-26T02:41:06;97005.44;;;13.76;100.00
52441;BME280;39611;46.062;8.950;2022-10-26T02:43:39;97014.97;;;13.83;100.00
52441;BME280;39611;46.062;8.950;2022-10-26T02:46:10;97016.41;;;13.70;100.00
52441;BME280;39611;46.062;8.950;2022-10-26T02:48:39;97026.84;;;13.61;100.00
52441;BME280;39611;46.062;8.950;2022-10-26T02:51:10;97016.81;;;13.53;100.00
52441;BME280;39611;46.062;8.950;2022-10-26T02:53:45;97022.59;;;13.60;100.00
52441;BME280;39611;46.062;8.950;2022-10-26T02:56:18;97013.53;;;13.61;100.00
52441;BME280;39611;46.062;8.950;2022-10-26T02:58:50;97011.09;;;13.70;100.00
52441;BME280;39611;46.062;8.950;2022-10-26T03:01:18;97000.69;;;13.73;100.00
52441;BME280;39611;46.062;8.950;2022-10-26T03:03:44;97018.22;;;13.74;100.00
52441;BME280;39611;46.062;8.950;2022-10-26T03:06:11;97016.16;;;13.66;100.00
52441;BME280;39611;46.062;8.950;2022-10-26T03:08:37;97013.25;;;13.68;100.00
52441;BME280;39611;46.062;8.950;2022-10-26T03:11:04;97025.25;;;13.60;100.00
52441;BME280;39611;46.062;8.950;2022-10-26T03:13:31;97034.66;;;13.47;100.00
52441;BME280;39611;46.062;8.950;2022-10-26T03:15:58;97031.19;;;13.52;100.00
52441;BME280;39611;46.062;8.950;2022-10-26T03:18:24;97022.09;;;13.58;100.00
52441;BME280;39611;46.062;8.950;2022-10-26T03:20:50;97029.53;;;13.56;100.00
52441;BME280;39611;46.062;8.950;2022-10-26T03:23:17;97026.91;;;13.51;100.00
52441;BME280;39611;46.062;8.950;2022-10-26T03:25:43;97033.63;;;13.43;100.00
52441;BME280;39611;46.062;8.950;2022-10-26T03:28:09;97044.72;;;13.50;100.00
52441;BME280;39611;46.062;8.950;2022-10-26T03:30:36;97043.88;;;13.60;100.00
52441;BME280;39611;46.062;8.950;2022-10-26T03:33:02;97050.00;;;13.55;100.00
52441;BME280;39611;46.062;8.950;2022-10-26T03:35:29;97048.94;;;13.57;100.00
52441;BME280;39611;46.062;8.950;2022-10-26T03:37:55;97051.63;;;13.51;100.00
52441;BME280;39611;46.062;8.950;2022-10-26T03:40:22;97062.59;;;13.45;100.00
52441;BME280;39611;46.062;8.950;2022-10-26T03:42:48;97058.78;;;13.56;100.00
52441;BME280;39611;46.062;8.950;2022-10-26T03:45:15;97050.69;;;13.71;100.00
52441;BME280;39611;46.062;8.950;2022-10-26T03:47:46;97050.13;;;13.74;100.00
52441;BME280;39611;46.062;8.950;2022-10-26T03:50:16;97053.94;;;13.63;100.00
52441;BME280;39611;46.062;8.950;2022-10-26T03:52:42;97056.81;;;13.67;100.00
52441;BME280;39611;46.062;8.950;2022-10-26T03:55:09;97071.47;;;13.64;100.00
52441;BME280;39611;46.062;8.950;2022-10-26T03:57:42;97067.47;;;13.67;100.00
52441;BME280;39611;46.062;8.950;2022-10-26T04:00:11;97060.78;;;13.69;100.00
52441;BME280;39611;46.062;8.950;2022-10-26T04:02:44;97075.16;;;13.68;100.00
52441;BME280;39611;46.062;8.950;2022-10-26T04:05:14;97063.75;;;13.68;100.00
52441;BME280;39611;46.062;8.950;2022-10-26T04:07:41;97064.69;;;13.82;100.00
52441;BME280;39611;46.062;8.950;2022-10-26T04:10:08;97074.50;;;13.87;100.00
52441;BME280;39611;46.062;8.950;2022-10-26T04:12:36;97070.03;;;13.77;100.00
52441;BME280;39611;46.062;8.950;2022-10-26T04:15:04;97066.63;;;13.71;100.00
52441;BME280;39611;46.062;8.950;2022-10-26T04:17:32;97075.44;;;13.67;100.00
52441;BME280;39611;46.062;8.950;2022-10-26T04:19:58;97070.97;;;13.62;100.00
52441;BME280;39611;46.062;8.950;2022-10-26T04:22:25;97061.31;;;13.71;100.00
52441;BME280;39611;46.062;8.950;2022-10-26T04:24:51;97069.03;;;13.73;100.00
52441;BME280;39611;46.062;8.950;2022-10-26T04:27:18;97071.69;;;13.73;100.00
52441;BME280;39611;46.062;8.950;2022-10-26T04:29:44;97074.09;;;13.69;100.00
52441;BME280;39611;46.062;8.950;2022-10-26T04:32:13;97078.63;;;13.69;100.00
52441;BME280;39611;46.062;8.950;2022-10-26T04:34:41;97081.00;;;13.70;100.00
52441;BME280;39611;46.062;8.950;2022-10-26T04:37:07;97079.97;;;13.66;100.00
52441;BME280;39611;46.062;8.950;2022-10-26T04:39:34;97075.72;;;13.65;100.00
52441;BME280;39611;46.062;8.950;2022-10-26T04:42:00;97078.63;;;13.69;100.00
52441;BME280;39611;46.062;8.950;2022-10-26T04:44:26;97082.06;;;13.69;100.00
52441;BME280;39611;46.062;8.950;2022-10-26T04:46:53;97076.22;;;13.72;100.00
52441;BME280;39611;46.062;8.950;2022-10-26T04:49:20;97060.91;;;13.54;100.00
52441;BME280;39611;46.062;8.950;2022-10-26T04:51:46;97061.69;;;13.60;100.00
52441;BME280;39611;46.062;8.950;2022-10-26T04:54:12;97055.00;;;13.67;100.00
52441;BME280;39611;46.062;8.950;2022-10-26T04:56:39;97050.25;;;13.59;100.00
52441;BME280;39611;46.062;8.950;2022-10-26T04:59:05;97056.59;;;13.63;100.00
52441;BME280;39611;46.062;8.950;2022-10-26T05:01:32;97070.19;;;13.57;100.00
52441;BME280;39611;46.062;8.950;2022-10-26T05:03:58;97067.41;;;13.38;100.00
52441;BME280;39611;46.062;8.950;2022-10-26T05:06:25;97055.16;;;13.42;100.00
52441;BME280;39611;46.062;8.950;2022-10-26T05:08:52;97049.31;;;13.45;100.00
52441;BME280;39611;46.062;8.950;2022-10-26T05:11:18;97056.13;;;13.56;100.00
52441;BME280;39611;46.062;8.950;2022-10-26T05:13:46;97043.31;;;13.63;100.00
52441;BME280;39611;46.062;8.950;2022-10-26T05:16:13;97046.50;;;13.65;100.00
52441;BME280;39611;46.062;8.950;2022-10-26T05:18:39;97042.56;;;13.58;100.00
52441;BME280;39611;46.062;8.950;2022-10-26T05:21:06;97040.16;;;13.56;100.00
52441;BME280;39611;46.062;8.950;2022-10-26T05:23:32;97036.66;;;13.66;100.00
52441;BME280;39611;46.062;8.950;2022-10-26T05:25:59;97027.88;;;13.65;100.00
52441;BME280;39611;46.062;8.950;2022-10-26T05:28:25;97010.84;;;13.66;100.00
52441;BME280;39611;46.062;8.950;2022-10-26T05:30:51;97011.44;;;13.58;100.00
52441;BME280;39611;46.062;8.950;2022-10-26T05:33:18;97005.56;;;13.61;100.00
52441;BME280;39611;46.062;8.950;2022-10-26T05:35:44;96988.97;;;13.45;100.00
52441;BME280;39611;46.062;8.950;2022-10-26T05:38:15;96978.81;;;13.52;100.00
52441;BME280;39611;46.062;8.950;2022-10-26T05:40:53;96983.00;;;13.59;100.00
52441;BME280;39611;46.062;8.950;2022-10-26T05:43:21;97000.81;;;13.58;100.00
52441;BME280;39611;46.062;8.950;2022-10-26T05:45:49;97011.75;;;13.51;100.00
52441;BME280;39611;46.062;8.950;2022-10-26T05:48:16;97016.28;;;13.51;100.00
52441;BME280;39611;46.062;8.950;2022-10-26T05:50:43;97014.97;;;13.48;100.00
52441;BME280;39611;46.062;8.950;2022-10-26T05:53:09;97011.53;;;13.48;100.00
52441;BME280;39611;46.062;8.950;2022-10-26T05:55:36;97007.31;;;13.47;100.00
52441;BME280;39611;46.062;8.950;2022-10-26T05:58:03;96996.66;;;13.47;100.00
52441;BME280;39611;46.062;8.950;2022-10-26T06:00:30;96984.97;;;13.48;100.00
52441;BME280;39611;46.062;8.950;2022-10-26T06:03:19;96990.78;;;13.50;100.00
52441;BME280;39611;46.062;8.950;2022-10-26T06:05:53;96996.59;;;13.57;100.00
52441;BME280;39611;46.062;8.950;2022-10-26T06:08:21;97007.72;;;13.59;100.00
52441;BME280;39611;46.062;8.950;2022-10-26T06:10:48;97027.34;;;13.63;100.00
52441;BME280;39611;46.062;8.950;2022-10-26T06:13:15;97039.66;;;13.54;100.00
52441;BME280;39611;46.062;8.950;2022-10-26T06:15:54;97059.72;;;13.36;100.00
52441;BME280;39611;46.062;8.950;2022-10-26T06:18:36;97071.38;;;13.40;100.00
52441;BME280;39611;46.062;8.950;2022-10-26T06:21:33;97070.56;;;13.45;100.00
52441;BME280;39611;46.062;8.950;2022-10-26T06:24:11;97073.16;;;13.55;100.00
52441;BME280;39611;46.062;8.950;2022-10-26T06:29:40;97058.00;;;13.55;100.00
52441;BME280;39611;46.062;8.950;2022-10-26T06:32:09;97066.78;;;13.51;100.00
52441;BME280;39611;46.062;8.950;2022-10-26T06:34:37;97072.09;;;13.51;100.00
52441;BME280;39611;46.062;8.950;2022-10-26T06:37:09;97086.41;;;13.60;100.00
52441;BME280;39611;46.062;8.950;2022-10-26T06:39:39;97075.50;;;13.57;100.00
52441;BME280;39611;46.062;8.950;2022-10-26T06:42:09;97079.00;;;13.57;100.00
52441;BME280;39611;46.062;8.950;2022-10-26T06:44:36;97080.81;;;13.57;100.00
52441;BME280;39611;46.062;8.950;2022-10-26T06:47:25;97086.47;;;13.50;100.00
52441;BME280;39611;46.062;8.950;2022-10-26T06:49:58;97089.13;;;13.50;100.00
52441;BME280;39611;46.062;8.950;2022-10-26T06:54:54;97101.81;;;13.58;100.00
52441;BME280;39611;46.062;8.950;2022-10-26T06:57:23;97099.19;;;13.53;100.00
52441;BME280;39611;46.062;8.950;2022-10-26T06:59:52;97105.63;;;13.47;100.00
52441;BME280;39611;46.062;8.950;2022-10-26T07:02:19;97110.19;;;13.41;100.00
52441;BME280;39611;46.062;8.950;2022-10-26T07:04:46;97114.66;;;13.46;100.00
52441;BME280;39611;46.062;8.950;2022-10-26T07:07:20;97123.13;;;13.53;100.00
52441;BME280;39611;46.062;8.950;2022-10-26T07:09:48;97116.22;;;13.52;100.00
52441;BME280;39611;46.062;8.950;2022-10-26T07:12:14;97116.47;;;13.55;100.00
52441;BME280;39611;46.062;8.950;2022-10-26T07:14:41;97118.03;;;13.57;100.00
52441;BME280;39611;46.062;8.950;2022-10-26T07:17:08;97122.06;;;13.49;100.00
52441;BME280;39611;46.062;8.950;2022-10-26T07:19:34;97128.47;;;13.48;100.00
52441;BME280;39611;46.062;8.950;2022-10-26T07:22:01;97129.97;;;13.59;100.00
52441;BME280;39611;46.062;8.950;2022-10-26T07:24:28;97143.28;;;13.59;100.00
52441;BME280;39611;46.062;8.950;2022-10-26T07:26:56;97148.91;;;13.52;100.00
52441;BME280;39611;46.062;8.950;2022-10-26T07:29:24;97144.31;;;13.63;100.00
52441;BME280;39611;46.062;8.950;2022-10-26T07:31:51;97141.06;;;13.71;100.00
52441;BME280;39611;46.062;8.950;2022-10-26T07:34:19;97139.88;;;13.88;100.00
52441;BME280;39611;46.062;8.950;2022-10-26T07:36:45;97140.44;;;13.85;100.00
52441;BME280;39611;46.062;8.950;2022-10-26T07:39:12;97128.56;;;13.72;100.00
52441;BME280;39611;46.062;8.950;2022-10-26T07:41:38;97132.56;;;13.69;100.00
52441;BME280;39611;46.062;8.950;2022-10-26T07:44:04;97137.56;;;13.81;100.00
52441;BME280;39611;46.062;8.950;2022-10-26T07:46:31;97139.09;;;13.87;100.00
52441;BME280;39611;46.062;8.950;2022-10-26T07:48:57;97131.97;;;13.83;100.00
52441;BME280;39611;46.062;8.950;2022-10-26T07:51:23;97131.09;;;13.92;100.00
52441;BME280;39611;46.062;8.950;2022-10-26T07:53:50;97141.94;;;14.01;100.00
52441;BME280;39611;46.062;8.950;2022-10-26T07:56:17;97142.91;;;14.10;100.00
52441;BME280;39611;46.062;8.950;2022-10-26T07:58:43;97140.25;;;14.10;100.00
52441;BME280;39611;46.062;8.950;2022-10-26T08:01:13;97156.81;;;14.02;100.00
52441;BME280;39611;46.062;8.950;2022-10-26T08:03:40;97148.88;;;13.97;100.00
52441;BME280;39611;46.062;8.950;2022-10-26T08:06:07;97161.31;;;14.07;100.00
52441;BME280;39611;46.062;8.950;2022-10-26T08:08:36;97154.06;;;14.12;100.00
52441;BME280;39611;46.062;8.950;2022-10-26T08:11:02;97159.63;;;14.16;100.00
52441;BME280;39611;46.062;8.950;2022-10-26T08:13:29;97155.88;;;14.22;100.00
52441;BME280;39611;46.062;8.950;2022-10-26T08:15:59;97146.25;;;14.26;100.00
52441;BME280;39611;46.062;8.950;2022-10-26T08:18:26;97145.41;;;14.31;100.00
52441;BME280;39611;46.062;8.950;2022-10-26T08:20:53;97144.28;;;14.37;100.00
52441;BME280;39611;46.062;8.950;2022-10-26T08:23:31;97144.75;;;14.44;100.00
52441;BME280;39611;46.062;8.950;2022-10-26T08:26:01;97147.41;;;14.44;100.00
52441;BME280;39611;46.062;8.950;2022-10-26T08:28:28;97150.47;;;14.32;100.00
52441;BME280;39611;46.062;8.950;2022-10-26T08:30:55;97153.28;;;14.41;100.00
52441;BME280;39611;46.062;8.950;2022-10-26T08:33:23;97143.75;;;14.40;100.00
52441;BME280;39611;46.062;8.950;2022-10-26T08:35:57;97143.13;;;14.48;100.00
52441;BME280;39611;46.062;8.950;2022-10-26T08:38:24;97155.31;;;14.54;100.00
52441;BME280;39611;46.062;8.950;2022-10-26T08:40:51;97157.16;;;14.59;100.00
52441;BME280;39611;46.062;8.950;2022-10-26T08:43:23;97154.72;;;14.62;100.00
52441;BME280;39611;46.062;8.950;2022-10-26T08:46:03;97151.41;;;14.71;100.00
52441;BME280;39611;46.062;8.950;2022-10-26T08:48:34;97157.78;;;14.75;100.00
52441;BME280;39611;46.062;8.950;2022-10-26T08:53:57;97158.00;;;14.78;100.00
52441;BME280;39611;46.062;8.950;2022-10-26T08:56:26;97158.31;;;14.77;100.00
52441;BME280;39611;46.062;8.950;2022-10-26T08:58:57;97165.16;;;14.83;100.00
52441;BME280;39611;46.062;8.950;2022-10-26T09:01:24;97158.41;;;14.91;100.00
52441;BME280;39611;46.062;8.950;2022-10-26T09:03:51;97155.91;;;14.99;100.00
52441;BME280;39611;46.062;8.950;2022-10-26T09:17:55;97170.97;;;15.09;100.00
52441;BME280;39611;46.062;8.950;2022-10-26T09:25:47;97158.25;;;15.25;100.00
52441;BME280;39611;46.062;8.950;2022-10-26T09:28:17;97157.72;;;15.28;100.00
52441;BME280;39611;46.062;8.950;2022-10-26T09:30:45;97157.66;;;15.33;100.00
52441;BME280;39611;46.062;8.950;2022-10-26T09:33:15;97166.38;;;15.39;100.00
52441;BME280;39611;46.062;8.950;2022-10-26T09:35:50;97170.88;;;15.38;100.00
52441;BME280;39611;46.062;8.950;2022-10-26T09:43:51;97166.97;;;15.55;100.00
52441;BME280;39611;46.062;8.950;2022-10-26T09:46:45;97167.94;;;15.59;100.00
52441;BME280;39611;46.062;8.950;2022-10-26T09:49:14;97168.47;;;15.61;100.00
52441;BME280;39611;46.062;8.950;2022-10-26T09:51:43;97159.88;;;15.64;100.00
52441;BME280;39611;46.062;8.950;2022-10-26T09:54:14;97165.69;;;15.71;100.00
52441;BME280;39611;46.062;8.950;2022-10-26T09:56:43;97163.22;;;15.75;100.00
52441;BME280;39611;46.062;8.950;2022-10-26T09:59:13;97159.69;;;15.79;100.00
52441;BME280;39611;46.062;8.950;2022-10-26T10:01:40;97173.75;;;15.85;100.00
52441;BME280;39611;46.062;8.950;2022-10-26T10:06:34;97160.69;;;16.02;100.00
52441;BME280;39611;46.062;8.950;2022-10-26T10:09:20;97161.91;;;16.10;100.00
52441;BME280;39611;46.062;8.950;2022-10-26T10:11:57;97165.16;;;16.07;100.00
52441;BME280;39611;46.062;8.950;2022-10-26T10:14:29;97167.75;;;16.12;100.00
52441;BME280;39611;46.062;8.950;2022-10-26T10:17:23;97167.75;;;16.12;100.00
52441;BME280;39611;46.062;8.950;2022-10-26T10:19:50;97170.22;;;16.08;100.00
52441;BME280;39611;46.062;8.950;2022-10-26T10:22:20;97177.25;;;16.18;100.00
52441;BME280;39611;46.062;8.950;2022-10-26T10:25:20;97162.59;;;16.15;100.00
52441;BME280;39611;46.062;8.950;2022-10-26T10:27:54;97167.16;;;16.15;100.00
52441;BME280;39611;46.062;8.950;2022-10-26T10:30:32;97165.97;;;16.21;100.00
52441;BME280;39611;46.062;8.950;2022-10-26T10:33:32;97166.47;;;16.23;100.00
52441;BME280;39611;46.062;8.950;2022-10-26T10:36:00;97168.47;;;16.31;100.00
52441;BME280;39611;46.062;8.950;2022-10-26T10:38:27;97171.41;;;16.49;100.00
52441;BME280;39611;46.062;8.950;2022-10-26T10:40:55;97171.91;;;16.51;100.00
52441;BME280;39611;46.062;8.950;2022-10-26T10:43:23;97174.56;;;16.51;100.00
52441;BME280;39611;46.062;8.950;2022-10-26T10:45:53;97169.25;;;16.65;100.00
52441;BME280;39611;46.062;8.950;2022-10-26T10:48:27;97162.53;;;16.67;100.00
52441;BME280;39611;46.062;8.950;2022-10-26T10:51:07;97162.63;;;16.62;100.00
52441;BME280;39611;46.062;8.950;2022-10-26T11:07:46;97160.94;;;16.66;100.00
52441;BME280;39611;46.062;8.950;2022-10-26T11:10:17;97153.53;;;16.63;100.00
52441;BME280;39611;46.062;8.950;2022-10-26T11:12:54;97148.97;;;16.64;100.00
52441;BME280;39611;46.062;8.950;2022-10-26T11:15:26;97147.00;;;16.69;100.00
52441;BME280;39611;46.062;8.950;2022-10-26T11:18:18;97143.72;;;16.72;100.00
52441;BME280;39611;46.062;8.950;2022-10-26T11:21:35;97139.38;;;16.76;100.00
52441;BME280;39611;46.062;8.950;2022-10-26T11:23:50;97131.69;;;16.89;100.00
52441;BME280;39611;46.062;8.950;2022-10-26T11:26:27;97120.22;;;17.02;100.00
52441;BME280;39611;46.062;8.950;2022-10-26T11:32:04;97132.88;;;16.96;100.00
52441;BME280;39611;46.062;8.950;2022-10-26T11:37:52;97134.47;;;16.97;100.00
52441;BME280;39611;46.062;8.950;2022-10-26T11:40:43;97135.53;;;16.96;100.00
52441;BME280;39611;46.062;8.950;2022-10-26T11:46:01;97125.16;;;16.95;100.00
52441;BME280;39611;46.062;8.950;2022-10-26T11:49:25;97127.75;;;17.00;100.00
52441;BME280;39611;46.062;8.950;2022-10-26T11:51:55;97124.28;;;16.99;100.00
52441;BME280;39611;46.062;8.950;2022-10-26T11:54:37;97124.97;;;17.05;100.00
52441;BME280;39611;46.062;8.950;2022-10-26T11:57:06;97125.56;;;17.02;100.00
52441;BME280;39611;46.062;8.950;2022-10-26T11:59:38;97126.03;;;17.04;100.00
52441;BME280;39611;46.062;8.950;2022-10-26T12:02:15;97120.59;;;17.09;100.00
52441;BME280;39611;46.062;8.950;2022-10-26T12:04:46;97118.41;;;17.11;100.00
52441;BME280;39611;46.062;8.950;2022-10-26T12:07:21;97118.41;;;17.11;100.00
52441;BME280;39611;46.062;8.950;2022-10-26T12:09:49;97115.25;;;17.09;100.00
52441;BME280;39611;46.062;8.950;2022-10-26T12:12:23;97106.94;;;17.11;100.00
52441;BME280;39611;46.062;8.950;2022-10-26T12:15:20;97114.06;;;17.15;100.00
52441;BME280;39611;46.062;8.950;2022-10-26T12:18:13;97116.25;;;17.13;100.00
52441;BME280;39611;46.062;8.950;2022-10-26T12:20:58;97112.25;;;17.24;100.00
52441;BME280;39611;46.062;8.950;2022-10-26T12:23:29;97114.44;;;17.22;100.00
52441;BME280;39611;46.062;8.950;2022-10-26T12:34:13;97113.25;;;17.29;100.00
52441;BME280;39611;46.062;8.950;2022-10-26T12:39:29;97130.06;;;17.29;100.00
52441;BME280;39611;46.062;8.950;2022-10-26T12:41:58;97119.31;;;17.20;100.00
52441;BME280;39611;46.062;8.950;2022-10-26T12:47:09;97117.00;;;17.28;100.00
52441;BME280;39611;46.062;8.950;2022-10-26T12:52:28;97120.63;;;17.45;100.00
52441;BME280;39611;46.062;8.950;2022-10-26T12:57:50;97124.97;;;17.55;98.53
52441;BME280;39611;46.062;8.950;2022-10-26T13:00:26;97125.06;;;17.50;100.00
52441;BME280;39611;46.062;8.950;2022-10-26T13:08:13;97127.47;;;17.52;100.00
52441;BME280;39611;46.062;8.950;2022-10-26T13:11:00;97121.91;;;17.48;100.00
52441;BME280;39611;46.062;8.950;2022-10-26T13:13:28;97109.91;;;17.45;100.00
52441;BME280;39611;46.062;8.950;2022-10-26T13:15:58;97107.69;;;17.39;100.00
52441;BME280;39611;46.062;8.950;2022-10-26T13:18:25;97105.00;;;17.39;100.00
52441;BME280;39611;46.062;8.950;2022-10-26T13:21:12;97109.03;;;17.50;95.49
52441;BME280;39611;46.062;8.950;2022-10-26T13:23:43;97112.03;;;17.49;100.00
52441;BME280;39611;46.062;8.950;2022-10-26T13:31:16;97109.13;;;17.45;100.00
52441;BME280;39611;46.062;8.950;2022-10-26T13:33:45;97110.84;;;17.41;100.00
52441;BME280;39611;46.062;8.950;2022-10-26T13:36:21;97104.41;;;17.42;100.00
52441;BME280;39611;46.062;8.950;2022-10-26T13:38:50;97109.25;;;17.40;100.00
52441;BME280;39611;46.062;8.950;2022-10-26T13:41:39;97106.56;;;17.40;100.00
52441;BME280;39611;46.062;8.950;2022-10-26T13:44:13;97105.00;;;17.39;100.00
52441;BME280;39611;46.062;8.950;2022-10-26T13:46:44;97104.22;;;17.38;100.00
52441;BME280;39611;46.062;8.950;2022-10-26T13:49:23;97097.59;;;17.36;100.00
52441;BME280;39611;46.062;8.950;2022-10-26T13:51:52;97105.13;;;17.34;100.00
52441;BME280;39611;46.062;8.950;2022-10-26T13:54:22;97102.94;;;17.36;100.00
52441;BME280;39611;46.062;8.950;2022-10-26T13:57:04;97105.50;;;17.27;100.00
52441;BME280;39611;46.062;8.950;2022-10-26T13:59:38;97108.28;;;17.36;100.00
52441;BME280;39611;46.062;8.950;2022-10-26T14:04:44;97105.13;;;17.34;100.00
52441;BME280;39611;46.062;8.950;2022-10-26T14:07:18;97105.91;;;17.34;100.00
52441;BME280;39611;46.062;8.950;2022-10-26T14:09:53;97104.63;;;17.32;100.00
52441;BME280;39611;46.062;8.950;2022-10-26T14:12:20;97110.56;;;17.29;100.00
52441;BME280;39611;46.062;8.950;2022-10-26T14:14:47;97110.19;;;17.21;100.00
52441;BME280;39611;46.062;8.950;2022-10-26T14:17:19;97109.41;;;17.21;100.00
52441;BME280;39611;46.062;8.950;2022-10-26T14:19:46;97109.22;;;17.17;100.00
52441;BME280;39611;46.062;8.950;2022-10-26T14:22:19;97108.91;;;17.19;100.00
52441;BME280;39611;46.062;8.950;2022-10-26T14:24:57;97107.00;;;17.19;100.00
52441;BME280;39611;46.062;8.950;2022-10-26T14:27:27;97112.34;;;17.19;100.00
52441;BME280;39611;46.062;8.950;2022-10-26T14:29:56;97115.63;;;17.16;100.00
52441;BME280;39611;46.062;8.950;2022-10-26T14:32:43;97113.06;;;17.11;100.00
52441;BME280;39611;46.062;8.950;2022-10-26T14:35:13;97120.59;;;17.09;100.00
52441;BME280;39611;46.062;8.950;2022-10-26T14:37:48;97121.78;;;17.03;100.00
52441;BME280;39611;46.062;8.950;2022-10-26T14:40:18;97120.78;;;16.99;100.00
52441;BME280;39611;46.062;8.950;2022-10-26T14:42:50;97129.91;;;16.98;100.00
52441;BME280;39611;46.062;8.950;2022-10-26T14:45:31;97126.25;;;16.94;100.00
52441;BME280;39611;46.062;8.950;2022-10-26T14:51:00;97132.00;;;16.87;100.00
52441;BME280;39611;46.062;8.950;2022-10-26T14:53:33;97133.47;;;16.79;100.00
52441;BME280;39611;46.062;8.950;2022-10-26T14:56:03;97139.91;;;16.78;100.00
52441;BME280;39611;46.062;8.950;2022-10-26T14:58:30;97141.78;;;16.78;100.00
52441;BME280;39611;46.062;8.950;2022-10-26T15:03:43;97146.72;;;16.71;100.00
52441;BME280;39611;46.062;8.950;2022-10-26T15:07:00;97147.78;;;16.70;100.00